sensor_id;sensor_type;location;lat;lon;timestamp;P1;durP1;ratioP1;P2;durP2;ratioP2
12587;SDS011;6359;51.450;7.346;2022-07-12T00:02:16;3.08;;;1.98;;
12587;SDS011;6359;51.450;7.346;2022-07-12T00:04:43;1.95;;;1.85;;
12587;SDS011;6359;51.450;7.346;2022-07-12T00:07:11;2.05;;;1.90;;
12587;SDS011;6359;51.450;7.346;2022-07-12T00:09:38;2.33;;;2.13;;
12587;SDS011;6359;51.450;7.346;2022-07-12T00:12:05;2.92;;;2.10;;
12587;SDS011;6359;51.450;7.346;2022-07-12T00:14:33;2.67;;;2.47;;
12587;SDS011;6359;51.450;7.346;2022-07-12T00:17:00;5.50;;;2.38;;
12587;SDS011;6359;51.450;7.346;2022-07-12T00:19:27;3.90;;;2.55;;
12587;SDS011;6359;51.450;7.346;2022-07-12T00:21:54;2.42;;;2.20;;
12587;SDS011;6359;51.450;7.346;2022-07-12T00:24:22;2.45;;;2.25;;
12587;SDS011;6359;51.450;7.346;2022-07-12T00:26:49;2.90;;;2.45;;
12587;SDS011;6359;51.450;7.346;2022-07-12T00:29:17;6.90;;;2.90;;
12587;SDS011;6359;51.450;7.346;2022-07-12T00:31:44;3.50;;;2.60;;
12587;SDS011;6359;51.450;7.346;2022-07-12T00:34:11;3.95;;;2.60;;
12587;SDS011;6359;51.450;7.346;2022-07-12T00:36:38;7.68;;;2.22;;
12587;SDS011;6359;51.450;7.346;2022-07-12T00:39:05;3.15;;;2.60;;
12587;SDS011;6359;51.450;7.346;2022-07-12T00:41:33;3.55;;;2.58;;
12587;SDS011;6359;51.450;7.346;2022-07-12T00:44:00;3.67;;;3.10;;
12587;SDS011;6359;51.450;7.346;2022-07-12T00:46:27;5.15;;;2.63;;
12587;SDS011;6359;51.450;7.346;2022-07-12T00:48:54;2.92;;;2.63;;
12587;SDS011;6359;51.450;7.346;2022-07-12T00:51:21;2.65;;;2.28;;
12587;SDS011;6359;51.450;7.346;2022-07-12T00:53:48;4.10;;;2.85;;
12587;SDS011;6359;51.450;7.346;2022-07-12T00:56:17;3.10;;;2.85;;
12587;SDS011;6359;51.450;7.346;2022-07-12T00:58:45;5.35;;;2.85;;
12587;SDS011;6359;51.450;7.346;2022-07-12T01:01:12;3.22;;;2.92;;
12587;SDS011;6359;51.450;7.346;2022-07-12T01:03:39;3.53;;;2.90;;
12587;SDS011;6359;51.450;7.346;2022-07-12T01:06:07;3.22;;;2.70;;
12587;SDS011;6359;51.450;7.346;2022-07-12T01:08:34;3.33;;;3.03;;
12587;SDS011;6359;51.450;7.346;2022-07-12T01:11:02;4.65;;;2.67;;
12587;SDS011;6359;51.450;7.346;2022-07-12T01:13:29;2.85;;;2.65;;
12587;SDS011;6359;51.450;7.346;2022-07-12T01:15:58;3.20;;;2.50;;
12587;SDS011;6359;51.450;7.346;2022-07-12T01:18:26;5.97;;;2.70;;
12587;SDS011;6359;51.450;7.346;2022-07-12T01:20:54;2.85;;;2.55;;
12587;SDS011;6359;51.450;7.346;2022-07-12T01:23:23;3.08;;;2.55;;
12587;SDS011;6359;51.450;7.346;2022-07-12T01:25:50;5.15;;;2.47;;
12587;SDS011;6359;51.450;7.346;2022-07-12T01:28:17;3.17;;;2.50;;
12587;SDS011;6359;51.450;7.346;2022-07-12T01:30:45;4.57;;;2.80;;
12587;SDS011;6359;51.450;7.346;2022-07-12T01:33:12;2.80;;;2.60;;
12587;SDS011;6359;51.450;7.346;2022-07-12T01:35:41;3.10;;;2.53;;
12587;SDS011;6359;51.450;7.346;2022-07-12T01:38:08;4.43;;;2.50;;
12587;SDS011;6359;51.450;7.346;2022-07-12T01:40:37;5.15;;;2.80;;
12587;SDS011;6359;51.450;7.346;2022-07-12T01:43:05;6.38;;;3.15;;
12587;SDS011;6359;51.450;7.346;2022-07-12T01:45:32;5.45;;;3.10;;
12587;SDS011;6359;51.450;7.346;2022-07-12T01:47:59;3.22;;;2.53;;
12587;SDS011;6359;51.450;7.346;2022-07-12T01:50:26;3.65;;;2.78;;
12587;SDS011;6359;51.450;7.346;2022-07-12T01:52:53;2.80;;;2.60;;
12587;SDS011;6359;51.450;7.346;2022-07-12T01:55:21;3.58;;;3.08;;
12587;SDS011;6359;51.450;7.346;2022-07-12T01:57:49;4.93;;;2.90;;
12587;SDS011;6359;51.450;7.346;2022-07-12T02:00:17;4.45;;;2.78;;
12587;SDS011;6359;51.450;7.346;2022-07-12T02:02:45;3.08;;;2.78;;
12587;SDS011;6359;51.450;7.346;2022-07-12T02:05:12;3.40;;;2.38;;
12587;SDS011;6359;51.450;7.346;2022-07-12T02:07:39;3.72;;;2.80;;
12587;SDS011;6359;51.450;7.346;2022-07-12T02:10:07;3.03;;;2.63;;
12587;SDS011;6359;51.450;7.346;2022-07-12T02:12:35;4.30;;;2.75;;
12587;SDS011;6359;51.450;7.346;2022-07-12T02:15:05;2.85;;;2.65;;
12587;SDS011;6359;51.450;7.346;2022-07-12T02:17:32;9.25;;;3.40;;
12587;SDS011;6359;51.450;7.346;2022-07-12T02:20:00;2.88;;;2.55;;
12587;SDS011;6359;51.450;7.346;2022-07-12T02:22:27;2.95;;;2.75;;
12587;SDS011;6359;51.450;7.346;2022-07-12T02:24:54;5.53;;;2.75;;
12587;SDS011;6359;51.450;7.346;2022-07-12T02:27:21;3.35;;;2.80;;
12587;SDS011;6359;51.450;7.346;2022-07-12T02:29:48;2.90;;;2.58;;
12587;SDS011;6359;51.450;7.346;2022-07-12T02:32:16;3.38;;;2.53;;
12587;SDS011;6359;51.450;7.346;2022-07-12T02:34:43;4.45;;;2.67;;
12587;SDS011;6359;51.450;7.346;2022-07-12T02:37:10;2.55;;;2.35;;
12587;SDS011;6359;51.450;7.346;2022-07-12T02:39:37;4.03;;;3.63;;
12587;SDS011;6359;51.450;7.346;2022-07-12T02:42:04;4.05;;;3.13;;
12587;SDS011;6359;51.450;7.346;2022-07-12T02:44:31;3.15;;;2.85;;
12587;SDS011;6359;51.450;7.346;2022-07-12T02:46:59;4.35;;;3.25;;
12587;SDS011;6359;51.450;7.346;2022-07-12T02:49:27;3.40;;;3.10;;
12587;SDS011;6359;51.450;7.346;2022-07-12T02:51:54;3.70;;;2.83;;
12587;SDS011;6359;51.450;7.346;2022-07-12T02:54:21;3.60;;;3.05;;
12587;SDS011;6359;51.450;7.346;2022-07-12T02:56:48;3.35;;;3.00;;
12587;SDS011;6359;51.450;7.346;2022-07-12T02:59:15;2.90;;;2.70;;
12587;SDS011;6359;51.450;7.346;2022-07-12T03:01:41;5.43;;;2.60;;
12587;SDS011;6359;51.450;7.346;2022-07-12T03:04:08;3.28;;;2.97;;
12587;SDS011;6359;51.450;7.346;2022-07-12T03:06:37;3.65;;;2.95;;
12587;SDS011;6359;51.450;7.346;2022-07-12T03:09:04;3.22;;;2.85;;
12587;SDS011;6359;51.450;7.346;2022-07-12T03:11:31;4.60;;;2.80;;
12587;SDS011;6359;51.450;7.346;2022-07-12T03:13:58;3.03;;;2.65;;
12587;SDS011;6359;51.450;7.346;2022-07-12T03:16:26;3.15;;;2.83;;
12587;SDS011;6359;51.450;7.346;2022-07-12T03:18:53;4.85;;;3.35;;
12587;SDS011;6359;51.450;7.346;2022-07-12T03:21:19;2.80;;;2.60;;
12587;SDS011;6359;51.450;7.346;2022-07-12T03:23:48;8.30;;;3.00;;
12587;SDS011;6359;51.450;7.346;2022-07-12T03:26:15;4.50;;;2.80;;
12587;SDS011;6359;51.450;7.346;2022-07-12T03:28:42;4.07;;;2.58;;
12587;SDS011;6359;51.450;7.346;2022-07-12T03:31:10;2.72;;;2.53;;
12587;SDS011;6359;51.450;7.346;2022-07-12T03:33:36;5.32;;;3.00;;
12587;SDS011;6359;51.450;7.346;2022-07-12T03:36:03;3.90;;;2.60;;
12587;SDS011;6359;51.450;7.346;2022-07-12T03:38:33;2.95;;;2.67;;
12587;SDS011;6359;51.450;7.346;2022-07-12T03:41:01;4.90;;;2.70;;
12587;SDS011;6359;51.450;7.346;2022-07-12T03:43:28;5.20;;;2.88;;
12587;SDS011;6359;51.450;7.346;2022-07-12T03:45:55;2.67;;;2.47;;
12587;SDS011;6359;51.450;7.346;2022-07-12T03:48:22;2.53;;;2.33;;
12587;SDS011;6359;51.450;7.346;2022-07-12T03:50:49;2.72;;;2.53;;
12587;SDS011;6359;51.450;7.346;2022-07-12T03:53:16;3.38;;;3.08;;
12587;SDS011;6359;51.450;7.346;2022-07-12T03:55:43;2.70;;;2.40;;
12587;SDS011;6359;51.450;7.346;2022-07-12T03:58:11;3.08;;;2.83;;
12587;SDS011;6359;51.450;7.346;2022-07-12T04:00:38;4.57;;;2.72;;
12587;SDS011;6359;51.450;7.346;2022-07-12T04:03:08;4.97;;;3.10;;
12587;SDS011;6359;51.450;7.346;2022-07-12T04:05:35;4.05;;;2.65;;
12587;SDS011;6359;51.450;7.346;2022-07-12T04:08:02;3.35;;;2.90;;
12587;SDS011;6359;51.450;7.346;2022-07-12T04:10:29;5.00;;;2.50;;
12587;SDS011;6359;51.450;7.346;2022-07-12T04:12:56;3.47;;;2.88;;
12587;SDS011;6359;51.450;7.346;2022-07-12T04:15:25;4.53;;;2.78;;
12587;SDS011;6359;51.450;7.346;2022-07-12T04:17:52;2.85;;;2.60;;
12587;SDS011;6359;51.450;7.346;2022-07-12T04:20:19;3.45;;;2.63;;
12587;SDS011;6359;51.450;7.346;2022-07-12T04:22:46;3.75;;;2.72;;
12587;SDS011;6359;51.450;7.346;2022-07-12T04:25:13;2.78;;;2.58;;
12587;SDS011;6359;51.450;7.346;2022-07-12T04:27:39;3.22;;;2.72;;
12587;SDS011;6359;51.450;7.346;2022-07-12T04:30:07;3.08;;;2.80;;
12587;SDS011;6359;51.450;7.346;2022-07-12T04:32:36;3.05;;;2.75;;
12587;SDS011;6359;51.450;7.346;2022-07-12T04:35:03;5.40;;;2.55;;
12587;SDS011;6359;51.450;7.346;2022-07-12T04:37:31;3.25;;;2.40;;
12587;SDS011;6359;51.450;7.346;2022-07-12T04:39:58;5.05;;;2.70;;
12587;SDS011;6359;51.450;7.346;2022-07-12T04:42:25;4.70;;;2.40;;
12587;SDS011;6359;51.450;7.346;2022-07-12T04:44:53;2.55;;;2.35;;
12587;SDS011;6359;51.450;7.346;2022-07-12T04:47:20;3.05;;;2.83;;
12587;SDS011;6359;51.450;7.346;2022-07-12T04:49:48;3.83;;;2.75;;
12587;SDS011;6359;51.450;7.346;2022-07-12T04:52:15;5.55;;;2.80;;
12587;SDS011;6359;51.450;7.346;2022-07-12T04:54:42;6.70;;;3.75;;
12587;SDS011;6359;51.450;7.346;2022-07-12T04:57:08;5.05;;;3.42;;
12587;SDS011;6359;51.450;7.346;2022-07-12T04:59:35;4.00;;;3.45;;
12587;SDS011;6359;51.450;7.346;2022-07-12T05:02:02;3.53;;;3.13;;
12587;SDS011;6359;51.450;7.346;2022-07-12T05:04:31;6.90;;;3.30;;
12587;SDS011;6359;51.450;7.346;2022-07-12T05:06:59;7.05;;;3.40;;
12587;SDS011;6359;51.450;7.346;2022-07-12T05:09:26;3.75;;;3.13;;
12587;SDS011;6359;51.450;7.346;2022-07-12T05:11:53;3.97;;;3.50;;
12587;SDS011;6359;51.450;7.346;2022-07-12T05:14:20;4.00;;;3.10;;
12587;SDS011;6359;51.450;7.346;2022-07-12T05:16:47;7.45;;;3.22;;
12587;SDS011;6359;51.450;7.346;2022-07-12T05:19:14;3.67;;;3.30;;
12587;SDS011;6359;51.450;7.346;2022-07-12T05:21:42;7.10;;;3.70;;
12587;SDS011;6359;51.450;7.346;2022-07-12T05:24:10;3.83;;;2.95;;
12587;SDS011;6359;51.450;7.346;2022-07-12T05:26:37;4.25;;;2.40;;
12587;SDS011;6359;51.450;7.346;2022-07-12T05:29:04;2.42;;;2.15;;
12587;SDS011;6359;51.450;7.346;2022-07-12T05:31:31;2.30;;;2.10;;
12587;SDS011;6359;51.450;7.346;2022-07-12T05:33:58;6.28;;;1.88;;
12587;SDS011;6359;51.450;7.346;2022-07-12T05:36:25;1.80;;;1.65;;
12587;SDS011;6359;51.450;7.346;2022-07-12T05:38:52;2.95;;;2.15;;
12587;SDS011;6359;51.450;7.346;2022-07-12T05:41:20;3.63;;;2.35;;
12587;SDS011;6359;51.450;7.346;2022-07-12T05:43:47;3.13;;;1.98;;
12587;SDS011;6359;51.450;7.346;2022-07-12T05:46:14;2.08;;;1.90;;
12587;SDS011;6359;51.450;7.346;2022-07-12T05:48:41;2.22;;;1.80;;
12587;SDS011;6359;51.450;7.346;2022-07-12T05:51:08;2.38;;;2.15;;
12587;SDS011;6359;51.450;7.346;2022-07-12T05:53:52;1.95;;;1.70;;
12587;SDS011;6359;51.450;7.346;2022-07-12T05:56:20;4.32;;;2.00;;
12587;SDS011;6359;51.450;7.346;2022-07-12T05:58:47;3.38;;;1.90;;
12587;SDS011;6359;51.450;7.346;2022-07-12T06:01:15;2.70;;;1.95;;
12587;SDS011;6359;51.450;7.346;2022-07-12T06:03:42;2.35;;;1.55;;
12587;SDS011;6359;51.450;7.346;2022-07-12T06:06:09;2.03;;;1.70;;
12587;SDS011;6359;51.450;7.346;2022-07-12T06:08:36;4.15;;;1.50;;
12587;SDS011;6359;51.450;7.346;2022-07-12T06:11:03;3.58;;;1.88;;
12587;SDS011;6359;51.450;7.346;2022-07-12T06:13:31;4.90;;;1.60;;
12587;SDS011;6359;51.450;7.346;2022-07-12T06:15:58;3.90;;;1.60;;
12587;SDS011;6359;51.450;7.346;2022-07-12T06:18:25;2.47;;;1.52;;
12587;SDS011;6359;51.450;7.346;2022-07-12T06:20:53;3.83;;;1.63;;
12587;SDS011;6359;51.450;7.346;2022-07-12T06:23:20;4.63;;;1.33;;
12587;SDS011;6359;51.450;7.346;2022-07-12T06:25:47;2.10;;;1.40;;
12587;SDS011;6359;51.450;7.346;2022-07-12T06:28:13;6.57;;;1.80;;
12587;SDS011;6359;51.450;7.346;2022-07-12T06:30:42;2.55;;;1.73;;
12587;SDS011;6359;51.450;7.346;2022-07-12T06:33:09;2.63;;;1.70;;
12587;SDS011;6359;51.450;7.346;2022-07-12T06:35:36;1.88;;;1.52;;
12587;SDS011;6359;51.450;7.346;2022-07-12T06:38:03;2.50;;;1.67;;
12587;SDS011;6359;51.450;7.346;2022-07-12T06:40:30;4.22;;;1.50;;
12587;SDS011;6359;51.450;7.346;2022-07-12T06:42:57;2.20;;;1.45;;
12587;SDS011;6359;51.450;7.346;2022-07-12T06:45:24;1.88;;;1.40;;
12587;SDS011;6359;51.450;7.346;2022-07-12T06:47:52;2.33;;;1.40;;
12587;SDS011;6359;51.450;7.346;2022-07-12T06:50:20;1.30;;;1.10;;
12587;SDS011;6359;51.450;7.346;2022-07-12T06:52:47;2.00;;;1.50;;
12587;SDS011;6359;51.450;7.346;2022-07-12T06:55:14;4.93;;;1.23;;
12587;SDS011;6359;51.450;7.346;2022-07-12T06:57:43;1.67;;;1.55;;
12587;SDS011;6359;51.450;7.346;2022-07-12T07:00:20;3.05;;;1.50;;
12587;SDS011;6359;51.450;7.346;2022-07-12T07:02:47;3.42;;;1.40;;
12587;SDS011;6359;51.450;7.346;2022-07-12T07:05:15;2.10;;;1.20;;
12587;SDS011;6359;51.450;7.346;2022-07-12T07:07:43;1.45;;;1.35;;
12587;SDS011;6359;51.450;7.346;2022-07-12T07:10:09;2.03;;;1.50;;
12587;SDS011;6359;51.450;7.346;2022-07-12T07:12:36;5.88;;;1.73;;
12587;SDS011;6359;51.450;7.346;2022-07-12T07:15:04;3.58;;;1.48;;
12587;SDS011;6359;51.450;7.346;2022-07-12T07:17:31;3.28;;;1.42;;
12587;SDS011;6359;51.450;7.346;2022-07-12T07:19:58;5.28;;;1.60;;
12587;SDS011;6359;51.450;7.346;2022-07-12T07:22:27;3.72;;;1.50;;
12587;SDS011;6359;51.450;7.346;2022-07-12T07:24:54;1.48;;;1.38;;
12587;SDS011;6359;51.450;7.346;2022-07-12T07:27:21;3.83;;;1.58;;
12587;SDS011;6359;51.450;7.346;2022-07-12T07:29:47;1.98;;;1.30;;
12587;SDS011;6359;51.450;7.346;2022-07-12T07:32:43;2.78;;;1.10;;
12587;SDS011;6359;51.450;7.346;2022-07-12T07:35:11;1.45;;;1.20;;
12587;SDS011;6359;51.450;7.346;2022-07-12T07:37:39;2.50;;;1.27;;
12587;SDS011;6359;51.450;7.346;2022-07-12T07:40:06;1.30;;;1.20;;
12587;SDS011;6359;51.450;7.346;2022-07-12T07:42:34;1.50;;;1.40;;
12587;SDS011;6359;51.450;7.346;2022-07-12T07:45:01;1.73;;;1.02;;
12587;SDS011;6359;51.450;7.346;2022-07-12T07:47:31;4.93;;;1.45;;
12587;SDS011;6359;51.450;7.346;2022-07-12T07:50:08;2.53;;;1.23;;
12587;SDS011;6359;51.450;7.346;2022-07-12T07:52:35;1.88;;;1.30;;
12587;SDS011;6359;51.450;7.346;2022-07-12T07:55:03;2.75;;;1.10;;
12587;SDS011;6359;51.450;7.346;2022-07-12T07:57:31;1.25;;;1.15;;
12587;SDS011;6359;51.450;7.346;2022-07-12T07:59:58;2.55;;;1.40;;
12587;SDS011;6359;51.450;7.346;2022-07-12T08:02:24;1.60;;;1.48;;
12587;SDS011;6359;51.450;7.346;2022-07-12T08:04:53;2.90;;;0.90;;
12587;SDS011;6359;51.450;7.346;2022-07-12T08:07:19;1.75;;;1.15;;
12587;SDS011;6359;51.450;7.346;2022-07-12T08:09:46;3.58;;;1.20;;
12587;SDS011;6359;51.450;7.346;2022-07-12T08:12:15;2.83;;;0.80;;
12587;SDS011;6359;51.450;7.346;2022-07-12T08:14:42;1.15;;;0.85;;
12587;SDS011;6359;51.450;7.346;2022-07-12T08:17:09;1.63;;;1.08;;
12587;SDS011;6359;51.450;7.346;2022-07-12T08:19:36;3.60;;;1.25;;
12587;SDS011;6359;51.450;7.346;2022-07-12T08:22:03;1.75;;;1.15;;
12587;SDS011;6359;51.450;7.346;2022-07-12T08:24:30;0.77;;;0.75;;
12587;SDS011;6359;51.450;7.346;2022-07-12T08:26:57;2.67;;;1.00;;
12587;SDS011;6359;51.450;7.346;2022-07-12T08:29:25;1.13;;;1.02;;
12587;SDS011;6359;51.450;7.346;2022-07-12T08:31:52;5.22;;;1.00;;
12587;SDS011;6359;51.450;7.346;2022-07-12T08:34:19;1.42;;;1.08;;
12587;SDS011;6359;51.450;7.346;2022-07-12T08:36:46;0.82;;;0.82;;
12587;SDS011;6359;51.450;7.346;2022-07-12T08:39:13;1.60;;;1.15;;
12587;SDS011;6359;51.450;7.346;2022-07-12T08:41:40;2.00;;;1.00;;
12587;SDS011;6359;51.450;7.346;2022-07-12T08:44:06;2.90;;;1.00;;
12587;SDS011;6359;51.450;7.346;2022-07-12T08:46:35;1.88;;;1.10;;
12587;SDS011;6359;51.450;7.346;2022-07-12T08:49:04;1.88;;;0.90;;
12587;SDS011;6359;51.450;7.346;2022-07-12T08:51:32;1.05;;;0.80;;
12587;SDS011;6359;51.450;7.346;2022-07-12T08:54:06;2.05;;;0.80;;
12587;SDS011;6359;51.450;7.346;2022-07-12T08:56:34;1.40;;;0.80;;
12587;SDS011;6359;51.450;7.346;2022-07-12T08:59:09;1.70;;;0.80;;
12587;SDS011;6359;51.450;7.346;2022-07-12T09:01:42;1.88;;;0.60;;
12587;SDS011;6359;51.450;7.346;2022-07-12T09:04:13;1.48;;;0.77;;
12587;SDS011;6359;51.450;7.346;2022-07-12T09:06:40;4.57;;;0.93;;
12587;SDS011;6359;51.450;7.346;2022-07-12T09:09:07;0.60;;;0.50;;
12587;SDS011;6359;51.450;7.346;2022-07-12T09:11:35;0.70;;;0.70;;
12587;SDS011;6359;51.450;7.346;2022-07-12T09:14:03;0.65;;;0.55;;
12587;SDS011;6359;51.450;7.346;2022-07-12T09:16:30;4.35;;;0.82;;
12587;SDS011;6359;51.450;7.346;2022-07-12T09:19:12;0.90;;;0.85;;
12587;SDS011;6359;51.450;7.346;2022-07-12T09:21:45;1.52;;;1.02;;
12587;SDS011;6359;51.450;7.346;2022-07-12T09:24:14;1.55;;;0.77;;
12587;SDS011;6359;51.450;7.346;2022-07-12T09:26:41;0.93;;;0.60;;
12587;SDS011;6359;51.450;7.346;2022-07-12T09:29:09;0.80;;;0.55;;
12587;SDS011;6359;51.450;7.346;2022-07-12T09:31:43;0.65;;;0.65;;
12587;SDS011;6359;51.450;7.346;2022-07-12T09:34:32;1.27;;;0.70;;
12587;SDS011;6359;51.450;7.346;2022-07-12T09:37:17;1.08;;;0.80;;
12587;SDS011;6359;51.450;7.346;2022-07-12T09:39:44;1.27;;;0.47;;
12587;SDS011;6359;51.450;7.346;2022-07-12T09:42:12;0.52;;;0.50;;
12587;SDS011;6359;51.450;7.346;2022-07-12T09:44:39;1.55;;;0.70;;
12587;SDS011;6359;51.450;7.346;2022-07-12T09:47:08;1.17;;;0.70;;
12587;SDS011;6359;51.450;7.346;2022-07-12T10:11:54;185.50;;;122.72;;
12587;SDS011;6359;51.450;7.346;2022-07-12T10:52:45;304.13;;;271.00;;
12587;SDS011;6359;51.450;7.346;2022-07-12T10:55:18;258.95;;;202.10;;
12587;SDS011;6359;51.450;7.346;2022-07-12T10:57:47;284.03;;;253.13;;
12587;SDS011;6359;51.450;7.346;2022-07-12T11:00:19;270.35;;;212.23;;
12587;SDS011;6359;51.450;7.346;2022-07-12T11:02:48;342.35;;;307.58;;
12587;SDS011;6359;51.450;7.346;2022-07-12T11:05:15;259.77;;;214.63;;
12587;SDS011;6359;51.450;7.346;2022-07-12T11:07:41;325.80;;;292.52;;
12587;SDS011;6359;51.450;7.346;2022-07-12T11:10:11;260.90;;;209.63;;
12587;SDS011;6359;51.450;7.346;2022-07-12T11:12:39;272.03;;;211.27;;
12587;SDS011;6359;51.450;7.346;2022-07-12T11:15:07;253.18;;;191.23;;
12587;SDS011;6359;51.450;7.346;2022-07-12T11:17:35;323.77;;;289.20;;
12587;SDS011;6359;51.450;7.346;2022-07-12T11:20:06;279.42;;;234.40;;
12587;SDS011;6359;51.450;7.346;2022-07-12T11:22:36;270.50;;;220.75;;
12587;SDS011;6359;51.450;7.346;2022-07-12T11:25:04;336.33;;;300.90;;
12587;SDS011;6359;51.450;7.346;2022-07-12T11:27:33;424.83;;;384.52;;
12587;SDS011;6359;51.450;7.346;2022-07-12T11:30:00;192.52;;;128.82;;
12587;SDS011;6359;51.450;7.346;2022-07-12T11:32:36;0.70;;;0.70;;
12587;SDS011;6359;51.450;7.346;2022-07-12T11:35:16;0.85;;;0.80;;
12587;SDS011;6359;51.450;7.346;2022-07-12T11:37:47;1.02;;;0.70;;
12587;SDS011;6359;51.450;7.346;2022-07-12T11:40:20;2.35;;;0.77;;
12587;SDS011;6359;51.450;7.346;2022-07-12T11:42:52;1.20;;;0.60;;
12587;SDS011;6359;51.450;7.346;2022-07-12T11:45:20;1.17;;;0.80;;
12587;SDS011;6359;51.450;7.346;2022-07-12T11:47:48;0.90;;;0.80;;
12587;SDS011;6359;51.450;7.346;2022-07-12T11:50:17;0.70;;;0.70;;
12587;SDS011;6359;51.450;7.346;2022-07-12T11:52:44;0.75;;;0.68;;
12587;SDS011;6359;51.450;7.346;2022-07-12T11:55:11;4.47;;;0.90;;
12587;SDS011;6359;51.450;7.346;2022-07-12T11:57:38;3.00;;;1.42;;
12587;SDS011;6359;51.450;7.346;2022-07-12T12:00:18;1.30;;;0.60;;
12587;SDS011;6359;51.450;7.346;2022-07-12T12:02:48;2.47;;;0.60;;
12587;SDS011;6359;51.450;7.346;2022-07-12T12:05:19;1.48;;;1.08;;
12587;SDS011;6359;51.450;7.346;2022-07-12T12:07:47;1.33;;;0.63;;
12587;SDS011;6359;51.450;7.346;2022-07-12T12:10:15;1.10;;;1.00;;
12587;SDS011;6359;51.450;7.346;2022-07-12T12:12:43;1.10;;;1.00;;
12587;SDS011;6359;51.450;7.346;2022-07-12T12:15:12;3.20;;;0.80;;
12587;SDS011;6359;51.450;7.346;2022-07-12T12:17:43;2.67;;;1.00;;
12587;SDS011;6359;51.450;7.346;2022-07-12T12:20:14;3.75;;;0.80;;
12587;SDS011;6359;51.450;7.346;2022-07-12T12:22:42;1.85;;;0.80;;
12587;SDS011;6359;51.450;7.346;2022-07-12T12:25:10;2.88;;;1.13;;
12587;SDS011;6359;51.450;7.346;2022-07-12T12:27:41;1.77;;;0.70;;
12587;SDS011;6359;51.450;7.346;2022-07-12T12:30:09;4.13;;;0.90;;
12587;SDS011;6359;51.450;7.346;2022-07-12T12:32:44;1.80;;;0.90;;
12587;SDS011;6359;51.450;7.346;2022-07-12T12:35:13;2.30;;;0.98;;
12587;SDS011;6359;51.450;7.346;2022-07-12T12:37:48;2.95;;;2.28;;
12587;SDS011;6359;51.450;7.346;2022-07-12T12:40:19;4.60;;;0.90;;
12587;SDS011;6359;51.450;7.346;2022-07-12T12:42:47;3.40;;;0.75;;
12587;SDS011;6359;51.450;7.346;2022-07-12T12:45:18;2.00;;;1.02;;
12587;SDS011;6359;51.450;7.346;2022-07-12T12:47:52;1.90;;;1.00;;
12587;SDS011;6359;51.450;7.346;2022-07-12T12:50:41;1.83;;;1.27;;
12587;SDS011;6359;51.450;7.346;2022-07-12T12:53:10;1.13;;;0.63;;
12587;SDS011;6359;51.450;7.346;2022-07-12T12:55:38;3.65;;;1.67;;
12587;SDS011;6359;51.450;7.346;2022-07-12T12:58:05;4.28;;;1.40;;
12587;SDS011;6359;51.450;7.346;2022-07-12T13:00:34;1.85;;;1.42;;
12587;SDS011;6359;51.450;7.346;2022-07-12T13:03:03;2.55;;;1.25;;
12587;SDS011;6359;51.450;7.346;2022-07-12T13:05:30;1.10;;;1.00;;
12587;SDS011;6359;51.450;7.346;2022-07-12T13:07:58;1.67;;;0.60;;
12587;SDS011;6359;51.450;7.346;2022-07-12T13:10:25;1.35;;;1.00;;
12587;SDS011;6359;51.450;7.346;2022-07-12T13:12:53;1.00;;;0.95;;
12587;SDS011;6359;51.450;7.346;2022-07-12T13:15:20;1.00;;;0.90;;
12587;SDS011;6359;51.450;7.346;2022-07-12T13:17:47;1.13;;;0.70;;
12587;SDS011;6359;51.450;7.346;2022-07-12T13:20:14;1.88;;;1.05;;
12587;SDS011;6359;51.450;7.346;2022-07-12T13:22:41;0.60;;;0.60;;
12587;SDS011;6359;51.450;7.346;2022-07-12T13:25:10;1.08;;;0.80;;
12587;SDS011;6359;51.450;7.346;2022-07-12T13:27:38;5.90;;;0.77;;
12587;SDS011;6359;51.450;7.346;2022-07-12T13:30:06;1.63;;;0.95;;
12587;SDS011;6359;51.450;7.346;2022-07-12T13:32:35;3.15;;;0.90;;
12587;SDS011;6359;51.450;7.346;2022-07-12T13:35:02;1.48;;;0.60;;
12587;SDS011;6359;51.450;7.346;2022-07-12T13:37:30;0.38;;;0.38;;
12587;SDS011;6359;51.450;7.346;2022-07-12T13:39:58;0.43;;;0.43;;
12587;SDS011;6359;51.450;7.346;2022-07-12T13:42:44;2.30;;;0.50;;
12587;SDS011;6359;51.450;7.346;2022-07-12T13:45:12;3.78;;;0.80;;
12587;SDS011;6359;51.450;7.346;2022-07-12T13:47:40;1.13;;;0.77;;
12587;SDS011;6359;51.450;7.346;2022-07-12T13:50:08;1.80;;;1.63;;
12587;SDS011;6359;51.450;7.346;2022-07-12T13:52:36;0.82;;;0.60;;
12587;SDS011;6359;51.450;7.346;2022-07-12T13:55:05;1.00;;;0.80;;
12587;SDS011;6359;51.450;7.346;2022-07-12T13:57:33;2.83;;;0.63;;
12587;SDS011;6359;51.450;7.346;2022-07-12T14:00:03;3.67;;;0.60;;
12587;SDS011;6359;51.450;7.346;2022-07-12T14:02:33;2.10;;;1.17;;
12587;SDS011;6359;51.450;7.346;2022-07-12T14:05:01;1.00;;;0.82;;
12587;SDS011;6359;51.450;7.346;2022-07-12T14:07:28;1.20;;;0.90;;
12587;SDS011;6359;51.450;7.346;2022-07-12T14:09:56;1.77;;;1.02;;
12587;SDS011;6359;51.450;7.346;2022-07-12T14:12:24;1.13;;;1.00;;
12587;SDS011;6359;51.450;7.346;2022-07-12T14:14:51;1.90;;;0.80;;
12587;SDS011;6359;51.450;7.346;2022-07-12T14:17:37;1.20;;;0.73;;
12587;SDS011;6359;51.450;7.346;2022-07-12T14:20:05;1.27;;;0.77;;
12587;SDS011;6359;51.450;7.346;2022-07-12T14:22:33;1.35;;;0.73;;
12587;SDS011;6359;51.450;7.346;2022-07-12T14:25:00;2.28;;;0.77;;
12587;SDS011;6359;51.450;7.346;2022-07-12T14:27:27;2.17;;;0.68;;
12587;SDS011;6359;51.450;7.346;2022-07-12T14:29:54;0.85;;;0.82;;
12587;SDS011;6359;51.450;7.346;2022-07-12T14:32:21;1.83;;;1.23;;
12587;SDS011;6359;51.450;7.346;2022-07-12T14:34:49;1.27;;;0.70;;
12587;SDS011;6359;51.450;7.346;2022-07-12T14:37:16;2.00;;;0.63;;
12587;SDS011;6359;51.450;7.346;2022-07-12T14:39:43;1.45;;;1.13;;
12587;SDS011;6359;51.450;7.346;2022-07-12T14:42:10;3.20;;;0.95;;
12587;SDS011;6359;51.450;7.346;2022-07-12T14:44:38;3.47;;;1.50;;
12587;SDS011;6359;51.450;7.346;2022-07-12T14:47:05;1.52;;;1.02;;
12587;SDS011;6359;51.450;7.346;2022-07-12T14:49:32;1.15;;;0.80;;
12587;SDS011;6359;51.450;7.346;2022-07-12T14:52:01;2.67;;;1.67;;
12587;SDS011;6359;51.450;7.346;2022-07-12T14:54:28;1.50;;;1.40;;
12587;SDS011;6359;51.450;7.346;2022-07-12T14:56:55;2.25;;;1.05;;
12587;SDS011;6359;51.450;7.346;2022-07-12T14:59:22;1.30;;;1.20;;
12587;SDS011;6359;51.450;7.346;2022-07-12T15:01:48;1.25;;;1.02;;
12587;SDS011;6359;51.450;7.346;2022-07-12T15:04:16;4.07;;;1.00;;
12587;SDS011;6359;51.450;7.346;2022-07-12T15:06:43;1.52;;;1.17;;
12587;SDS011;6359;51.450;7.346;2022-07-12T15:09:11;1.52;;;1.00;;
12587;SDS011;6359;51.450;7.346;2022-07-12T15:11:38;3.50;;;0.85;;
12587;SDS011;6359;51.450;7.346;2022-07-12T15:14:06;1.25;;;1.08;;
12587;SDS011;6359;51.450;7.346;2022-07-12T15:16:33;1.40;;;0.85;;
12587;SDS011;6359;51.450;7.346;2022-07-12T15:19:00;0.82;;;0.82;;
12587;SDS011;6359;51.450;7.346;2022-07-12T15:21:27;2.65;;;0.90;;
12587;SDS011;6359;51.450;7.346;2022-07-12T15:23:54;3.00;;;1.00;;
12587;SDS011;6359;51.450;7.346;2022-07-12T15:26:22;1.25;;;1.00;;
12587;SDS011;6359;51.450;7.346;2022-07-12T15:28:50;4.50;;;1.13;;
12587;SDS011;6359;51.450;7.346;2022-07-12T15:31:18;6.60;;;0.90;;
12587;SDS011;6359;51.450;7.346;2022-07-12T15:33:45;1.60;;;1.20;;
12587;SDS011;6359;51.450;7.346;2022-07-12T15:36:12;1.20;;;1.00;;
12587;SDS011;6359;51.450;7.346;2022-07-12T15:38:40;3.08;;;1.40;;
12587;SDS011;6359;51.450;7.346;2022-07-12T15:41:08;1.42;;;1.00;;
12587;SDS011;6359;51.450;7.346;2022-07-12T15:43:38;0.80;;;0.80;;
12587;SDS011;6359;51.450;7.346;2022-07-12T15:46:06;1.48;;;0.80;;
12587;SDS011;6359;51.450;7.346;2022-07-12T15:48:34;1.33;;;1.20;;
12587;SDS011;6359;51.450;7.346;2022-07-12T15:51:01;2.70;;;1.08;;
12587;SDS011;6359;51.450;7.346;2022-07-12T15:53:28;1.63;;;1.40;;
12587;SDS011;6359;51.450;7.346;2022-07-12T15:55:58;4.13;;;1.10;;
12587;SDS011;6359;51.450;7.346;2022-07-12T15:58:27;2.63;;;1.08;;
12587;SDS011;6359;51.450;7.346;2022-07-12T16:00:57;4.40;;;0.88;;
12587;SDS011;6359;51.450;7.346;2022-07-12T16:03:24;1.60;;;0.90;;
12587;SDS011;6359;51.450;7.346;2022-07-12T16:05:52;2.72;;;1.20;;